Time;durP1;ratioP1;P1;durP2;ratioP2;P2;SDS_P1;SDS_P2;PMS_P1;PMS_P2;Temp;Humidity;BMP_temperature;BMP_pressure;BME280_temperature;BME280_humidity;BME280_pressure;Samples;Min_cycle;Max_cycle;Signal;HPM_P1;HPM_P2
2022/04/24 00:01:15;;;;;;;19.15;10.35;;;11.50;99.90;;;;;;6234528;23;20000;-91
2022/04/24 00:03:51;;;;;;;14.27;10.18;;;11.60;99.90;;;;;;6238341;23;19992;-90
2022/04/24 00:06:23;;;;;;;15.40;9.32;;;11.60;99.90;;;;;;6239390;23;20016;-91
2022/04/24 00:08:51;;;;;;;14.18;10.55;;;11.60;99.90;;;;;;6238146;23;20023;-91
2022/04/24 00:11:20;;;;;;;14.07;9.23;;;11.60;99.90;;;;;;6237152;23;20004;-92
2022/04/24 00:13:48;;;;;;;13.88;9.65;;;11.70;99.90;;;;;;6238585;23;20032;-92
2022/04/24 00:16:14;;;;;;;15.48;9.90;;;11.60;99.90;;;;;;6234952;23;19993;-92
2022/04/24 00:19:11;;;;;;;15.73;9.90;;;11.70;99.90;;;;;;6233277;23;19992;-92
2022/04/24 00:21:39;;;;;;;16.65;10.70;;;11.70;99.90;;;;;;6237477;23;20023;-91
2022/04/24 00:24:08;;;;;;;12.95;8.93;;;11.80;99.90;;;;;;6235013;23;20004;-92
2022/04/24 00:26:36;;;;;;;14.63;9.93;;;11.80;99.90;;;;;;6216278;23;20082;-91
2022/04/24 00:29:18;;;;;;;14.07;9.73;;;11.80;99.90;;;;;;6214399;23;20442;-91
2022/04/24 00:31:43;;;;;;;13.45;9.60;;;11.80;99.90;;;;;;6213933;23;20004;-91
2022/04/24 00:34:17;;;;;;;14.90;9.88;;;11.80;99.90;;;;;;6214670;23;20449;-90
2022/04/24 00:36:54;;;;;;;13.98;9.00;;;11.80;99.90;;;;;;6214280;23;20075;-91
2022/04/24 00:39:32;;;;;;;13.70;9.43;;;11.80;99.90;;;;;;6212879;23;20004;-89
2022/04/24 00:41:58;;;;;;;14.40;9.60;;;11.80;99.90;;;;;;6213509;23;20004;-92
2022/04/24 00:44:34;;;;;;;13.88;9.30;;;11.80;99.90;;;;;;6215382;23;20043;-91
2022/04/24 00:47:17;;;;;;;13.98;9.73;;;11.80;99.90;;;;;;6215469;23;20016;-91
2022/04/24 00:49:51;;;;;;;15.35;9.13;;;11.70;99.90;;;;;;6212627;23;20020;-91
2022/04/24 00:52:18;;;;;;;13.98;9.07;;;11.80;99.90;;;;;;6215312;23;20020;-91
2022/04/24 00:54:46;;;;;;;16.85;8.50;;;11.70;99.90;;;;;;6213345;23;20005;-91
2022/04/24 00:57:16;;;;;;;13.82;9.88;;;11.80;99.90;;;;;;6215307;23;20007;-90
2022/04/24 00:59:42;;;;;;;12.93;8.90;;;11.80;99.90;;;;;;6214431;23;20005;-89
2022/04/24 01:02:09;;;;;;;19.13;8.73;;;11.80;99.90;;;;;;6213591;23;20005;-90
2022/04/24 01:04:46;;;;;;;14.70;9.65;;;11.80;99.90;;;;;;6214101;23;20004;-91
2022/04/24 01:07:11;;;;;;;15.93;9.98;;;11.70;99.90;;;;;;6215332;23;20016;-91
2022/04/24 01:09:37;;;;;;;15.02;9.82;;;11.70;99.90;;;;;;6214116;23;20008;-88
2022/04/24 01:12:05;;;;;;;13.40;9.23;;;11.80;99.90;;;;;;6215653;23;20028;-90
2022/04/24 01:14:31;;;;;;;12.93;8.85;;;11.70;99.90;;;;;;6215538;23;20095;-91
2022/04/24 01:16:58;;;;;;;15.07;9.70;;;11.70;99.90;;;;;;6213741;23;20009;-91
2022/04/24 01:19:25;;;;;;;15.02;9.25;;;11.70;99.90;;;;;;6215889;23;20076;-92
2022/04/24 01:21:52;;;;;;;13.43;8.77;;;11.60;99.90;;;;;;6228028;23;20000;-91
2022/04/24 01:24:26;;;;;;;11.43;8.40;;;11.60;99.90;;;;;;6215377;23;20001;-91
2022/04/24 01:27:01;;;;;;;15.98;9.07;;;11.60;99.90;;;;;;6217452;23;20543;-88
2022/04/24 01:29:32;;;;;;;16.27;9.95;;;11.60;99.90;;;;;;6217010;23;20427;-91
2022/04/24 01:31:57;;;;;;;;;;;11.50;99.90;;;;;;6217888;23;20018;-91
2022/04/24 01:34:23;;;;;;;13.13;9.18;;;11.50;99.90;;;;;;6217923;23;20228;-91
2022/04/24 01:36:51;;;;;;;14.02;9.63;;;11.50;99.90;;;;;;6217299;23;20355;-90
2022/04/24 01:39:17;;;;;;;14.25;10.73;;;11.50;99.90;;;;;;6217294;23;19996;-90
2022/04/24 01:41:43;;;;;;;15.02;9.40;;;11.40;99.90;;;;;;6216877;23;20378;-91
2022/04/24 01:44:14;;;;;;;12.18;9.50;;;11.40;99.90;;;;;;6215805;23;20032;-91
2022/04/24 01:46:45;;;;;;;14.75;9.32;;;11.40;99.90;;;;;;6216115;23;20004;-92
2022/04/24 01:49:11;;;;;;;15.85;9.27;;;11.50;99.90;;;;;;6215415;23;20004;-91
2022/04/24 01:51:39;;;;;;;14.27;9.30;;;11.60;99.90;;;;;;6216696;23;20007;-91
2022/04/24 01:54:10;;;;;;;13.20;9.70;;;11.60;99.90;;;;;;6216242;23;20015;-91
2022/04/24 01:56:36;;;;;;;13.88;9.35;;;11.80;99.90;;;;;;6215653;23;20009;-90
2022/04/24 01:59:01;;;;;;;16.38;10.32;;;11.80;99.90;;;;;;6216054;23;20383;-90
2022/04/24 02:01:27;;;;;;;12.02;9.15;;;11.80;99.90;;;;;;6216878;23;20011;-89
2022/04/24 02:03:53;;;;;;;16.40;10.15;;;11.60;99.90;;;;;;6215768;23;20000;-91
2022/04/24 02:06:18;;;;;;;15.70;10.65;;;11.50;99.90;;;;;;6215997;23;20008;-91
2022/04/24 02:08:44;;;;;;;17.52;10.90;;;11.40;99.90;;;;;;6224046;23;20007;-90
2022/04/24 02:11:09;;;;;;;14.98;10.15;;;11.30;99.90;;;;;;6222823;23;20005;-88
2022/04/24 02:13:35;;;;;;;14.57;10.82;;;11.20;99.90;;;;;;6226342;23;20122;-91
2022/04/24 02:16:01;;;;;;;20.30;11.85;;;11.10;99.90;;;;;;6222951;23;20013;-90
2022/04/24 02:18:27;;;;;;;15.80;10.30;;;11.10;99.90;;;;;;6219742;23;20004;-91
2022/04/24 02:20:52;;;;;;;17.70;10.88;;;11.10;99.90;;;;;;6215271;23;20005;-91
2022/04/24 02:23:18;;;;;;;15.88;10.50;;;11.00;99.90;;;;;;6215397;23;20074;-93
2022/04/24 02:25:44;;;;;;;16.60;10.45;;;11.10;99.90;;;;;;6215091;23;20012;-91
2022/04/24 02:28:09;;;;;;;17.63;11.60;;;11.20;99.90;;;;;;6217385;23;20005;-89
2022/04/24 02:30:35;;;;;;;18.13;11.35;;;11.20;99.90;;;;;;6215086;23;20453;-90
2022/04/24 02:33:01;;;;;;;19.73;10.80;;;11.20;99.90;;;;;;6217296;23;20024;-91
2022/04/24 02:35:39;;;;;;;17.58;12.23;;;11.10;99.90;;;;;;6217219;23;20024;-92
2022/04/24 02:38:05;;;;;;;17.25;11.65;;;11.10;99.90;;;;;;6217983;23;19996;-91
2022/04/24 02:40:34;;;;;;;20.13;11.38;;;11.00;99.90;;;;;;6215575;23;20008;-92
2022/04/24 02:43:27;;;;;;;20.17;12.40;;;11.00;99.90;;;;;;6217533;23;20007;-92
2022/04/24 02:45:53;;;;;;;18.35;11.30;;;10.90;99.90;;;;;;6215818;23;20058;-92
2022/04/24 02:48:35;;;;;;;17.15;12.18;;;10.80;99.90;;;;;;6215716;23;20036;-91
2022/04/24 02:51:06;;;;;;;17.25;12.00;;;10.80;99.90;;;;;;6215175;23;20008;-92
2022/04/24 02:53:37;;;;;;;18.67;12.63;;;10.80;99.90;;;;;;6216086;23;20028;-92
2022/04/24 02:56:06;;;;;;;18.70;11.98;;;10.80;99.90;;;;;;6217444;23;20031;-91
2022/04/24 02:58:44;;;;;;;19.63;11.38;;;10.80;99.90;;;;;;6218283;23;20019;-92
2022/04/24 03:01:15;;;;;;;19.23;11.90;;;10.80;99.90;;;;;;6216232;23;19997;-91
2022/04/24 03:04:20;;;;;;;17.33;11.98;;;10.80;99.90;;;;;;6216220;23;20001;-91
2022/04/24 03:06:57;;;;;;;16.67;12.15;;;10.70;99.90;;;;;;6215014;23;20032;-91
2022/04/24 03:09:22;;;;;;;21.15;12.75;;;10.60;99.90;;;;;;6217449;23;20024;-92
2022/04/24 03:11:48;;;;;;;18.98;13.00;;;10.60;99.90;;;;;;6217653;23;20055;-92
2022/04/24 03:14:13;;;;;;;17.83;12.32;;;10.50;99.90;;;;;;6218517;23;20011;-91
2022/04/24 03:16:39;;;;;;;17.73;12.20;;;10.30;99.90;;;;;;6217800;23;20655;-92
2022/04/24 03:19:05;;;;;;;19.20;13.10;;;10.30;99.90;;;;;;6224637;23;19996;-92
2022/04/24 03:21:30;;;;;;;19.23;13.13;;;10.30;99.90;;;;;;6221222;23;20382;-91
2022/04/24 03:23:56;;;;;;;19.70;12.57;;;10.30;99.90;;;;;;6217433;23;20001;-91
2022/04/24 03:26:34;;;;;;;18.42;12.43;;;10.30;99.90;;;;;;6228892;23;20009;-94
2022/04/24 03:29:03;;;;;;;19.33;13.00;;;10.40;99.90;;;;;;6230955;22;20013;-93
2022/04/24 03:31:28;;;;;;;21.38;13.27;;;10.30;99.90;;;;;;6240828;23;20000;-94
2022/04/24 03:33:57;;;;;;;20.38;13.48;;;10.20;99.90;;;;;;6241816;23;20092;-95
2022/04/24 03:36:30;;;;;;;24.50;12.48;;;10.20;99.90;;;;;;6242349;23;20047;-92
2022/04/24 03:39:01;;;;;;;17.52;12.52;;;10.30;99.90;;;;;;6241780;23;20008;-93
2022/04/24 03:41:38;;;;;;;19.33;13.40;;;10.30;99.90;;;;;;6242615;23;20013;-93
2022/04/24 03:44:10;;;;;;;21.05;12.63;;;10.30;99.90;;;;;;6242270;23;20048;-94
2022/04/24 03:46:48;;;;;;;20.30;13.15;;;10.20;99.90;;;;;;6240259;23;20056;-90
2022/04/24 03:49:14;;;;;;;20.55;13.23;;;10.30;99.90;;;;;;6228244;23;19992;-89
2022/04/24 03:51:40;;;;;;;21.08;14.15;;;10.40;99.90;;;;;;6242302;23;19997;-94
2022/04/24 03:54:12;;;;;;;20.67;13.93;;;10.40;99.90;;;;;;6228718;23;20008;-92
2022/04/24 03:56:37;;;;;;;20.67;14.55;;;10.50;99.90;;;;;;6241873;23;20064;-92
2022/04/24 03:59:06;;;;;;;22.52;13.95;;;10.50;99.90;;;;;;6243660;23;19993;-92
2022/04/24 04:01:42;;;;;;;20.98;13.65;;;10.40;99.90;;;;;;6243421;23;20024;-93
2022/04/24 04:04:14;;;;;;;21.17;13.55;;;10.40;99.90;;;;;;6242612;23;20005;-89
2022/04/24 04:06:46;;;;;;;24.45;14.90;;;10.40;99.90;;;;;;6242462;23;19992;-92
2022/04/24 04:09:11;;;;;;;23.58;14.40;;;10.30;99.90;;;;;;6242566;23;19989;-90
2022/04/24 04:11:37;;;;;;;22.45;15.63;;;10.20;99.90;;;;;;6226729;23;20131;-90
2022/04/24 04:14:03;;;;;;;22.55;14.75;;;10.20;99.90;;;;;;6215295;23;20008;-90
2022/04/24 04:16:29;;;;;;;23.85;14.50;;;10.00;99.90;;;;;;6214307;23;20025;-90
2022/04/24 04:18:55;;;;;;;23.42;15.23;;;10.10;99.90;;;;;;6214647;23;20031;-91
2022/04/24 04:21:20;;;;;;;25.23;15.15;;;10.00;99.90;;;;;;6215813;23;20414;-91
2022/04/24 04:23:46;;;;;;;24.33;15.73;;;9.90;99.90;;;;;;6215665;23;20000;-91
2022/04/24 04:26:12;;;;;;;24.27;15.70;;;9.90;99.90;;;;;;6215849;23;20055;-90
2022/04/24 04:28:44;;;;;;;23.80;15.60;;;9.80;99.90;;;;;;6215513;23;20013;-90
2022/04/24 04:31:14;;;;;;;26.95;16.23;;;9.80;99.90;;;;;;6215082;23;20008;-91
2022/04/24 04:33:40;;;;;;;22.58;15.35;;;9.80;99.90;;;;;;6213439;23;20032;-91
2022/04/24 04:36:06;;;;;;;23.88;15.10;;;9.70;99.90;;;;;;6215256;23;20001;-91
2022/04/24 04:38:32;;;;;;;23.65;13.85;;;9.70;99.90;;;;;;6215317;23;20141;-91
2022/04/24 04:40:57;;;;;;;21.02;13.30;;;9.70;99.90;;;;;;6215095;23;20091;-88
2022/04/24 04:43:26;;;;;;;23.48;13.20;;;9.60;99.90;;;;;;6215967;23;20003;-91
2022/04/24 04:45:52;;;;;;;20.52;11.70;;;9.60;99.90;;;;;;6213771;23;20004;-90
2022/04/24 04:48:18;;;;;;;18.75;12.35;;;9.60;99.90;;;;;;6214681;23;20009;-90
2022/04/24 04:50:43;;;;;;;21.33;11.50;;;9.60;99.90;;;;;;6215771;23;20374;-90
2022/04/24 04:53:09;;;;;;;21.25;11.80;;;9.60;99.90;;;;;;6214459;23;20039;-90
2022/04/24 04:55:35;;;;;;;20.65;11.98;;;9.60;99.90;;;;;;6215233;23;20012;-90
2022/04/24 04:58:01;;;;;;;18.70;10.80;;;9.50;99.90;;;;;;6214386;23;20449;-91
2022/04/24 05:00:26;;;;;;;25.08;12.77;;;9.60;99.90;;;;;;6216297;23;20072;-91
2022/04/24 05:02:53;;;;;;;22.33;11.80;;;9.60;99.90;;;;;;6217349;23;20008;-91
2022/04/24 05:05:19;;;;;;;21.08;11.98;;;9.70;99.90;;;;;;6217395;23;20036;-91
2022/04/24 05:07:44;;;;;;;21.55;12.20;;;9.80;99.90;;;;;;6216997;23;20009;-90
2022/04/24 05:10:10;;;;;;;14.50;10.18;;;9.80;99.90;;;;;;6215323;23;20145;-90
2022/04/24 05:12:39;;;;;;;17.23;10.38;;;9.80;99.90;;;;;;6215741;23;20061;-91
2022/04/24 05:15:10;;;;;;;15.70;9.55;;;9.70;99.90;;;;;;6230017;23;20009;-89
2022/04/24 05:17:36;;;;;;;16.60;9.55;;;9.70;99.90;;;;;;6214175;23;20008;-90
2022/04/24 05:20:04;;;;;;;15.50;9.75;;;9.60;99.90;;;;;;6214678;23;20000;-93
2022/04/24 05:22:30;;;;;;;14.65;8.27;;;9.60;99.90;;;;;;6217604;23;20001;-90
2022/04/24 05:24:55;;;;;;;10.23;6.85;;;9.60;99.90;;;;;;6225267;23;20061;-89
2022/04/24 05:27:21;;;;;;;7.70;4.60;;;9.60;99.90;;;;;;6220077;23;20032;-90
2022/04/24 05:29:47;;;;;;;5.85;4.03;;;9.60;99.90;;;;;;6216736;23;20040;-89
2022/04/24 05:32:13;;;;;;;7.70;4.28;;;9.50;99.90;;;;;;6215603;23;20028;-90
2022/04/24 05:34:39;;;;;;;4.03;3.05;;;9.50;99.90;;;;;;6214370;23;20009;-91
2022/04/24 05:37:05;;;;;;;4.82;2.70;;;9.40;99.90;;;;;;6212670;23;20009;-91
2022/04/24 05:39:32;;;;;;;3.97;2.80;;;9.30;99.90;;;;;;6212818;23;20076;-90
2022/04/24 05:41:57;;;;;;;5.40;3.05;;;9.40;99.90;;;;;;6214602;23;20020;-92
2022/04/24 05:44:23;;;;;;;3.85;2.85;;;9.30;99.90;;;;;;6213698;23;20075;-90
2022/04/24 05:46:48;;;;;;;6.82;3.10;;;9.40;99.90;;;;;;6213022;23;20005;-88
2022/04/24 05:49:14;;;;;;;3.88;2.20;;;9.30;99.90;;;;;;6213249;23;20016;-89
2022/04/24 05:51:40;;;;;;;3.60;2.47;;;9.30;99.90;;;;;;6212032;23;20334;-90
2022/04/24 05:54:05;;;;;;;2.58;2.10;;;9.30;99.90;;;;;;6212970;23;20502;-87
2022/04/24 05:56:31;;;;;;;3.42;2.10;;;9.40;99.90;;;;;;6213914;23;20016;-88
2022/04/24 05:58:57;;;;;;;3.00;2.20;;;9.20;99.90;;;;;;6214430;23;20319;-88
2022/04/24 06:01:22;;;;;;;2.60;1.98;;;9.10;99.90;;;;;;6214129;23;19997;-86
2022/04/24 06:03:48;;;;;;;2.70;2.03;;;8.90;99.90;;;;;;6212693;23;20009;-88
2022/04/24 06:07:00;;;;;;;4.00;1.73;;;8.90;99.90;;;;;;6214302;23;20339;-87
2022/04/24 06:09:38;;;;;;;3.13;1.92;;;8.80;99.90;;;;;;6213850;23;20020;-88
2022/04/24 06:15:42;;;;;;;2.38;1.52;;;8.80;99.90;;;;;;6155991;23;20462;-88
2022/04/24 06:18:07;;;;;;;1.95;1.50;;;8.90;99.90;;;;;;6214629;23;20001;-88
2022/04/24 06:20:33;;;;;;;3.22;1.48;;;8.90;99.90;;;;;;6214264;23;20102;-87
2022/04/24 06:22:59;;;;;;;1.55;1.45;;;8.90;99.90;;;;;;6216523;23;20000;-88
2022/04/24 06:25:34;;;;;;;2.40;1.05;;;9.00;99.90;;;;;;6214164;23;20001;-86
2022/04/24 06:28:09;;;;;;;2.53;1.40;;;9.00;99.90;;;;;;6211931;22;20037;-90
2022/04/24 06:30:38;;;;;;;1.45;1.35;;;9.00;99.90;;;;;;6215114;23;20008;-89
2022/04/24 06:33:17;;;;;;;3.55;1.13;;;9.00;99.90;;;;;;6213435;23;20001;-87
2022/04/24 06:35:45;;;;;;;1.40;1.30;;;9.00;99.90;;;;;;6215799;23;20339;-88
2022/04/24 06:38:11;;;;;;;1.55;0.98;;;9.00;99.90;;;;;;6214619;23;20312;-88
2022/04/24 06:40:37;;;;;;;1.02;0.98;;;8.90;99.90;;;;;;6213499;23;20012;-88
2022/04/24 06:43:09;;;;;;;1.50;1.10;;;8.90;99.90;;;;;;6215747;23;20498;-87
2022/04/24 06:45:45;;;;;;;1.20;1.10;;;8.90;99.90;;;;;;6213441;23;20000;-88
2022/04/24 06:48:14;;;;;;;2.97;1.08;;;8.90;99.90;;;;;;6215286;23;20009;-89
2022/04/24 06:50:49;;;;;;;1.00;0.90;;;8.90;99.90;;;;;;6215012;23;20000;-88
2022/04/24 06:53:20;;;;;;;1.45;1.15;;;9.00;99.90;;;;;;6214976;23;20005;-88
2022/04/24 06:55:59;;;;;;;1.17;0.90;;;8.90;99.90;;;;;;6212798;23;20000;-89
2022/04/24 06:58:26;;;;;;;3.92;1.13;;;8.80;99.90;;;;;;6214865;23;20015;-88
2022/04/24 07:00:53;;;;;;;1.02;0.93;;;8.90;99.90;;;;;;6214620;23;20348;-86
2022/04/24 07:03:26;;;;;;;1.60;1.00;;;8.90;99.90;;;;;;6214808;23;20386;-88
2022/04/24 07:06:00;;;;;;;1.90;0.93;;;8.90;99.90;;;;;;6214964;23;20016;-88
2022/04/24 07:08:29;;;;;;;1.45;1.00;;;8.90;99.90;;;;;;6213906;23;20043;-88
2022/04/24 07:11:07;;;;;;;1.30;1.20;;;8.90;99.90;;;;;;6216340;23;20083;-88
2022/04/24 07:13:33;;;;;;;1.50;1.05;;;8.90;99.90;;;;;;6213133;23;20138;-89
2022/04/24 07:15:58;;;;;;;1.42;1.00;;;8.90;99.90;;;;;;6214415;23;20415;-88
2022/04/24 07:18:28;;;;;;;1.55;1.08;;;8.80;99.90;;;;;;6215447;23;20011;-88
2022/04/24 07:21:03;;;;;;;3.53;1.25;;;8.80;99.90;;;;;;6213782;23;20430;-90
2022/04/24 07:26:20;;;;;;;2.30;1.00;;;8.90;99.90;;;;;;6214694;23;20382;-88
2022/04/24 07:28:46;;;;;;;1.42;1.10;;;8.80;99.90;;;;;;6214112;23;20095;-88
2022/04/24 07:31:18;;;;;;;1.77;1.10;;;8.90;99.90;;;;;;6216226;23;20016;-88
2022/04/24 07:33:43;;;;;;;1.42;1.25;;;8.90;99.90;;;;;;6217516;23;20083;-89
2022/04/24 07:36:59;;;;;;;1.00;1.00;;;8.90;99.90;;;;;;6219358;23;20032;-90
2022/04/24 07:39:46;;;;;;;2.28;1.02;;;8.80;99.90;;;;;;6214978;23;20469;-90
2022/04/24 07:42:14;;;;;;;2.28;1.40;;;8.90;99.90;;;;;;6215506;23;20008;-88
2022/04/24 07:44:42;;;;;;;1.40;1.30;;;8.90;99.90;;;;;;6215847;23;20000;-91
2022/04/24 07:47:08;;;;;;;2.97;1.42;;;8.90;99.90;;;;;;6213296;23;20004;-88
2022/04/24 07:49:47;;;;;;;2.17;1.27;;;9.00;99.90;;;;;;6215227;23;20004;-88
2022/04/24 07:52:32;;;;;;;1.40;1.25;;;9.00;99.90;;;;;;6209967;23;20031;-89
2022/04/24 07:55:22;;;;;;;1.20;1.10;;;9.20;99.90;;;;;;6215259;23;20036;-90
2022/04/24 07:57:53;;;;;;;1.08;1.00;;;9.40;99.90;;;;;;6213433;23;20093;-89
2022/04/24 08:00:33;;;;;;;1.65;1.15;;;9.40;99.90;;;;;;6213264;23;20032;-89
2022/04/24 08:03:06;;;;;;;3.58;1.10;;;9.40;99.90;;;;;;6212895;23;20004;-88
2022/04/24 08:05:52;;;;;;;0.77;0.77;;;9.50;99.90;;;;;;6214597;23;20008;-88
2022/04/24 08:08:24;;;;;;;1.08;0.98;;;9.40;99.90;;;;;;6213780;23;20092;-87
2022/04/24 08:11:00;;;;;;;;;;;9.30;99.90;;;;;;6215163;23;20062;-90
2022/04/24 08:13:29;;;;;;;3.53;1.73;;;9.30;99.90;;;;;;6211951;23;19983;-88
2022/04/24 08:16:09;;;;;;;2.28;1.65;;;9.40;99.90;;;;;;6212255;23;20104;-89
2022/04/24 08:18:38;;;;;;;2.15;1.40;;;9.40;99.90;;;;;;6214444;23;20000;-89
2022/04/24 08:21:09;;;;;;;1.67;1.35;;;9.40;99.90;;;;;;6214113;23;20004;-89
2022/04/24 08:23:38;;;;;;;3.45;1.55;;;9.40;99.90;;;;;;6215546;23;20005;-91
2022/04/24 08:26:42;;;;;;;1.45;1.35;;;9.40;99.90;;;;;;6215880;23;20008;-90
2022/04/24 08:29:16;;;;;;;1.60;1.17;;;9.30;99.90;;;;;;6213916;23;20064;-90
2022/04/24 08:31:47;;;;;;;1.10;1.00;;;9.30;99.90;;;;;;6213939;23;20012;-91
2022/04/24 08:34:22;;;;;;;0.80;0.80;;;9.30;99.90;;;;;;6215328;23;20005;-90
2022/04/24 08:36:52;;;;;;;1.45;0.75;;;9.30;99.90;;;;;;6213890;23;20008;-91
2022/04/24 08:42:30;;;;;;;1.60;1.20;;;9.20;99.90;;;;;;6185536;23;19997;-91
2022/04/24 08:44:59;;;;;;;1.30;1.20;;;9.10;99.90;;;;;;6212753;23;19993;-90
2022/04/24 08:47:37;;;;;;;1.30;1.20;;;9.10;99.90;;;;;;6213712;23;20011;-90
2022/04/24 08:50:25;;;;;;;1.27;1.02;;;9.10;99.90;;;;;;6213802;23;20087;-89
2022/04/24 08:52:56;;;;;;;1.00;0.90;;;9.10;99.90;;;;;;6215593;23;20220;-91
2022/04/24 08:55:44;;;;;;;1.80;1.13;;;9.00;99.90;;;;;;6214811;23;20100;-91
2022/04/24 08:58:10;;;;;;;1.10;0.95;;;9.00;99.90;;;;;;6212640;23;20016;-89
2022/04/24 09:00:43;;;;;;;2.45;1.30;;;9.00;99.90;;;;;;6215525;23;20001;-91
2022/04/24 09:03:24;;;;;;;1.45;1.25;;;9.00;99.90;;;;;;6215227;23;20001;-92
2022/04/24 09:09:22;;;;;;;2.45;1.52;;;9.00;99.90;;;;;;6215341;23;20083;-91
2022/04/24 09:14:57;;;;;;;2.50;1.90;;;9.00;99.90;;;;;;6183482;23;20159;-91
2022/04/24 09:17:49;;;;;;;1.30;1.20;;;9.00;99.90;;;;;;6157251;23;20017;-91
2022/04/24 09:20:31;;;;;;;;;;;9.10;99.90;;;;;;6209861;23;19997;-91
2022/04/24 09:23:16;;;;;;;2.83;1.00;;;9.10;99.90;;;;;;6213760;23;20416;-91
2022/04/24 09:25:53;;;;;;;1.02;0.93;;;9.20;99.90;;;;;;6213559;23;20011;-91
2022/04/24 09:28:46;;;;;;;2.97;1.33;;;9.10;99.90;;;;;;6212743;23;20427;-91
2022/04/24 09:31:46;;;;;;;1.27;1.10;;;9.10;99.90;;;;;;6214912;23;20012;-92
2022/04/24 09:34:55;;;;;;;2.28;1.20;;;9.20;99.90;;;;;;6218984;23;20013;-91
2022/04/24 09:37:26;;;;;;;1.20;1.10;;;9.40;99.90;;;;;;6203207;22;20030;-92
2022/04/24 09:40:33;;;;;;;1.52;1.35;;;9.30;99.90;;;;;;6228935;23;20053;-91
2022/04/24 09:43:04;;;;;;;1.30;1.20;;;9.40;99.90;;;;;;6233432;23;19999;-91
2022/04/24 09:45:30;;;;;;;1.75;1.30;;;9.40;99.90;;;;;;6233863;23;20069;-91
2022/04/24 09:48:03;;;;;;;1.73;1.35;;;9.30;99.90;;;;;;6233843;23;20008;-92
2022/04/24 09:50:34;;;;;;;1.58;1.42;;;9.30;99.90;;;;;;6225944;23;20001;-91
2022/04/24 09:53:14;;;;;;;2.75;1.90;;;9.20;99.90;;;;;;6221020;23;20005;-91
2022/04/24 09:55:43;;;;;;;2.20;1.55;;;9.30;99.90;;;;;;6223232;23;20004;-89
2022/04/24 09:58:11;;;;;;;1.85;1.60;;;9.10;99.90;;;;;;6223191;23;20031;-88
2022/04/24 10:00:37;;;;;;;2.10;1.77;;;9.20;99.90;;;;;;6215392;23;20013;-88
2022/04/24 10:03:03;;;;;;;4.25;2.00;;;9.40;99.90;;;;;;6217221;23;20008;-89
2022/04/24 10:08:28;;;;;;;5.53;2.05;;;9.30;99.90;;;;;;6214522;23;20015;-87
2022/04/24 10:10:53;;;;;;;3.00;1.80;;;9.40;99.90;;;;;;6232264;23;20020;-87
2022/04/24 10:13:21;;;;;;;5.32;2.13;;;9.20;99.90;;;;;;6220461;23;20008;-88
2022/04/24 10:16:27;;;;;;;4.82;2.22;;;9.30;99.90;;;;;;6221010;23;20036;-88
2022/04/24 10:19:48;;;;;;;4.10;2.00;;;9.30;99.90;;;;;;6169711;23;20005;-90
2022/04/24 10:22:47;;;;;;;2.60;2.03;;;9.20;99.90;;;;;;6219128;23;20001;-91
2022/04/24 10:25:17;;;;;;;2.83;2.10;;;9.30;99.90;;;;;;6221708;23;20000;-91
2022/04/24 10:27:49;;;;;;;3.65;2.22;;;9.30;99.90;;;;;;6219267;23;20430;-92
2022/04/24 10:30:24;;;;;;;2.67;2.20;;;9.30;99.90;;;;;;6225756;23;20004;-89
2022/04/24 10:33:19;;;;;;;3.83;2.30;;;9.20;99.90;;;;;;6225030;23;20000;-89
2022/04/24 10:35:52;;;;;;;3.38;2.58;;;9.30;99.90;;;;;;6220369;23;20001;-89
2022/04/24 10:38:24;;;;;;;3.05;2.53;;;9.30;99.90;;;;;;6222139;23;20039;-89
2022/04/24 10:41:15;;;;;;;2.63;2.03;;;9.30;99.90;;;;;;6219490;23;20076;-90
2022/04/24 10:44:06;;;;;;;2.83;2.30;;;9.30;99.90;;;;;;6219814;23;20000;-90
2022/04/24 10:46:33;;;;;;;4.28;2.28;;;9.30;99.90;;;;;;6223605;23;20001;-88
2022/04/24 10:49:24;;;;;;;6.35;3.53;;;9.20;99.90;;;;;;6233857;23;20015;-88
2022/04/24 10:52:00;;;;;;;;;;;9.30;99.90;;;;;;6218780;23;20042;-90
2022/04/24 10:54:44;;;;;;;14.02;6.35;;;9.40;99.90;;;;;;6233970;23;19887;-90
2022/04/24 10:57:28;;;;;;;4.93;3.67;;;9.40;99.90;;;;;;6229349;23;20016;-89
2022/04/24 11:00:22;;;;;;;4.53;3.17;;;9.40;99.90;;;;;;6226250;23;20004;-89
2022/04/24 11:03:36;;;;;;;5.68;3.15;;;9.50;99.90;;;;;;6227851;23;20000;-89
2022/04/24 11:06:49;;;;;;;3.65;3.03;;;9.40;99.90;;;;;;6217162;23;20020;-89
2022/04/24 11:09:44;;;;;;;7.30;4.45;;;9.50;99.90;;;;;;6216172;23;20009;-90
2022/04/24 11:12:18;;;;;;;8.35;6.10;;;9.50;99.90;;;;;;6180690;23;20356;-90
2022/04/24 11:15:24;;;;;;;7.47;5.60;;;9.60;99.90;;;;;;6230639;23;20008;-89
2022/04/24 11:21:23;;;;;;;8.07;5.35;;;9.70;99.90;;;;;;6095132;23;20010;-89
2022/04/24 11:25:00;;;;;;;9.27;5.63;;;9.60;99.90;;;;;;6209501;23;20001;-89
2022/04/24 11:27:35;;;;;;;8.77;5.50;;;9.70;99.90;;;;;;6226538;23;20013;-90
2022/04/24 11:30:00;;;;;;;9.38;6.53;;;9.60;99.90;;;;;;6217167;23;20312;-89
2022/04/24 11:32:29;;;;;;;9.63;6.88;;;9.70;99.90;;;;;;6216112;23;20003;-88
2022/04/24 11:34:55;;;;;;;13.75;7.30;;;9.60;99.90;;;;;;6222558;23;20000;-88
2022/04/24 11:37:23;;;;;;;10.75;6.78;;;9.60;99.90;;;;;;6226218;23;20039;-89
2022/04/24 11:39:49;;;;;;;8.82;5.93;;;9.60;99.90;;;;;;6223534;23;20071;-91
2022/04/24 11:42:15;;;;;;;11.85;5.78;;;9.50;99.90;;;;;;6223035;23;19996;-91
2022/04/24 11:50:50;;;;;;;8.50;5.40;;;9.60;99.90;;;;;;6217908;23;20350;-89
2022/04/24 11:53:17;;;;;;;8.65;5.43;;;9.60;99.90;;;;;;6216537;23;20001;-88
2022/04/24 11:56:03;;;;;;;7.95;5.57;;;9.60;99.90;;;;;;6229901;23;19996;-90
2022/04/24 11:58:40;;;;;;;6.78;5.07;;;9.60;99.90;;;;;;6227847;23;20459;-89
2022/04/24 12:01:09;;;;;;;9.43;6.35;;;9.70;99.90;;;;;;6222153;23;20012;-88
2022/04/24 12:03:36;;;;;;;11.77;7.47;;;9.80;99.90;;;;;;6221448;23;20015;-88
2022/04/24 12:06:11;;;;;;;9.40;7.07;;;9.80;99.90;;;;;;6223579;23;19992;-88
2022/04/24 12:08:44;;;;;;;11.20;7.70;;;9.70;99.90;;;;;;6218244;23;20000;-88
2022/04/24 12:11:24;;;;;;;12.95;9.10;;;9.80;99.90;;;;;;6221528;23;20001;-87
2022/04/24 12:14:08;;;;;;;15.40;8.98;;;9.80;99.90;;;;;;6225063;23;20016;-89
2022/04/24 12:16:45;;;;;;;15.65;9.40;;;9.80;99.90;;;;;;6222276;23;20023;-87
2022/04/24 12:19:30;;;;;;;15.48;8.93;;;9.80;99.90;;;;;;6223408;23;20000;-87
2022/04/24 12:22:37;;;;;;;13.63;9.30;;;9.90;99.90;;;;;;6214463;23;20315;-89
2022/04/24 12:28:47;;;;;;;15.57;9.82;;;10.40;99.90;;;;;;6185668;22;20059;-90
2022/04/24 12:31:27;;;;;;;14.45;9.77;;;10.50;99.90;;;;;;6212620;23;19997;-93
2022/04/24 12:34:10;;;;;;;17.38;11.52;;;10.50;99.90;;;;;;6214977;23;20063;-92
2022/04/24 12:36:48;;;;;;;16.23;10.93;;;10.60;99.90;;;;;;6212528;23;20028;-92
2022/04/24 12:39:32;;;;;;;17.85;11.77;;;10.60;99.90;;;;;;6213889;23;19996;-92
2022/04/24 12:42:01;;;;;;;19.23;11.52;;;10.70;99.90;;;;;;6214011;23;20354;-92
2022/04/24 12:44:30;;;;;;;14.25;9.82;;;10.80;99.90;;;;;;6213432;23;19996;-91
2022/04/24 12:47:14;;;;;;;15.60;9.07;;;10.90;99.90;;;;;;6214972;23;20491;-91
2022/04/24 12:52:26;;;;;;;17.27;10.65;;;11.00;99.90;;;;;;6214858;23;20026;-89
2022/04/24 12:54:52;;;;;;;19.20;11.15;;;11.10;99.90;;;;;;6213487;23;20017;-90
2022/04/24 12:57:29;;;;;;;18.90;10.85;;;11.20;99.90;;;;;;6214903;23;20005;-89
2022/04/24 13:03:24;;;;;;;14.57;9.73;;;11.30;99.90;;;;;;6216047;23;20019;-91
2022/04/24 13:05:51;;;;;;;20.27;10.50;;;11.40;99.90;;;;;;6217139;23;20000;-91
2022/04/24 13:08:17;;;;;;;18.55;11.05;;;11.50;99.90;;;;;;6214288;23;20001;-88
2022/04/24 13:10:45;;;;;;;17.00;11.00;;;11.70;99.90;;;;;;6214708;23;20083;-92
2022/04/24 13:13:11;;;;;;;17.98;11.75;;;11.80;99.90;;;;;;6213336;23;20001;-89
2022/04/24 13:15:37;;;;;;;18.98;11.05;;;11.80;99.90;;;;;;6214598;23;20086;-91
2022/04/24 13:18:07;;;;;;;18.38;11.52;;;11.80;99.90;;;;;;6215681;23;20375;-91
2022/04/24 13:20:41;;;;;;;16.70;11.37;;;11.90;99.90;;;;;;6215186;23;20004;-88
2022/04/24 13:23:12;;;;;;;18.25;12.40;;;11.80;99.90;;;;;;6216659;23;20235;-89
2022/04/24 13:25:39;;;;;;;18.63;12.43;;;11.80;99.90;;;;;;6217190;23;20047;-91
2022/04/24 13:28:06;;;;;;;18.63;11.93;;;11.80;99.90;;;;;;6217080;23;20370;-88
2022/04/24 13:30:33;;;;;;;20.13;11.32;;;11.70;99.90;;;;;;6216180;23;20009;-91
2022/04/24 13:32:59;;;;;;;17.48;10.98;;;11.90;99.90;;;;;;6217099;23;20009;-90
2022/04/24 13:35:25;;;;;;;19.30;11.55;;;11.90;99.90;;;;;;6217520;23;20450;-89
2022/04/24 13:40:35;;;;;;;19.17;11.10;;;12.00;99.90;;;;;;6216361;23;20064;-86
2022/04/24 13:43:01;;;;;;;16.77;11.10;;;12.00;99.90;;;;;;6216560;23;20000;-89
2022/04/24 13:45:27;;;;;;;16.95;11.23;;;12.00;99.90;;;;;;6216310;23;20000;-89
2022/04/24 13:48:30;;;;;;;16.80;10.90;;;11.90;99.90;;;;;;6215668;23;20004;-88
2022/04/24 13:50:56;;;;;;;19.55;11.10;;;12.00;99.90;;;;;;6215138;23;20342;-88
2022/04/24 13:53:26;;;;;;;17.23;11.25;;;11.80;99.90;;;;;;6216210;23;20009;-87
2022/04/24 13:55:52;;;;;;;21.80;11.95;;;11.70;99.90;;;;;;6216182;23;20001;-87